createdAt,value
2023-05-21T00:00:30.650Z,101013.81
2023-05-21T00:05:32.628Z,101011.19
2023-05-21T00:10:34.322Z,101007.38
2023-05-21T00:15:36.308Z,101006.13
2023-05-21T00:20:38.216Z,101001.84
2023-05-21T00:25:39.613Z,100995.56
2023-05-21T00:30:43.010Z,100997.78
2023-05-21T00:35:44.417Z,100978.66
2023-05-21T00:40:45.842Z,100970.56
2023-05-21T00:45:48.452Z,100974.56
2023-05-21T00:50:50.451Z,100969.09
2023-05-21T00:55:51.947Z,100973.09
2023-05-21T01:00:56.614Z,100966.03
2023-05-21T01:06:00.046Z,100971.28
2023-05-21T01:11:02.476Z,100971.47
2023-05-21T01:16:06.659Z,100971.28
2023-05-21T01:21:08.054Z,100965.22
2023-05-21T01:26:12.889Z,100954.72
2023-05-21T01:31:34.205Z,100947.50
2023-05-21T01:36:40.946Z,100959.19
2023-05-21T01:41:44.962Z,100957.75
2023-05-21T01:46:46.412Z,100959.16
2023-05-21T01:51:48.570Z,100962.03
2023-05-21T01:56:50.716Z,100955.78
2023-05-21T02:01:52.085Z,100956.25
2023-05-21T02:06:54.830Z,100956.25
2023-05-21T02:11:56.585Z,100956.84
2023-05-21T02:16:58.009Z,100951.19
2023-05-21T02:21:59.366Z,100952.41
2023-05-21T02:27:00.725Z,100948.00
2023-05-21T02:32:02.127Z,100946.78
2023-05-21T02:37:03.469Z,100950.38
2023-05-21T02:42:04.843Z,100948.19
2023-05-21T02:47:06.774Z,100953.25
2023-05-21T02:52:08.142Z,100946.78
2023-05-21T02:57:09.486Z,100942.56
2023-05-21T03:02:10.852Z,100943.16
2023-05-21T03:07:15.741Z,100942.38
2023-05-21T03:12:17.090Z,100934.66
2023-05-21T03:17:19.014Z,100938.28
2023-05-21T03:22:21.562Z,100929.22
2023-05-21T03:27:22.945Z,100923.38
2023-05-21T03:32:24.410Z,100925.59
2023-05-21T03:37:25.831Z,100918.53
2023-05-21T03:42:27.182Z,100921.75
2023-05-21T03:47:28.542Z,100917.31
2023-05-21T03:52:29.899Z,100927.00
2023-05-21T03:57:31.244Z,100926.38
2023-05-21T04:02:32.765Z,100920.53
2023-05-21T04:07:34.243Z,100924.38
2023-05-21T04:12:35.859Z,100936.44
2023-05-21T04:17:37.214Z,100926.41
2023-05-21T04:22:38.613Z,100933.06
2023-05-21T04:27:39.960Z,100934.28
2023-05-21T04:32:41.525Z,100932.72
2023-05-21T04:37:45.797Z,100939.38
2023-05-21T04:42:48.396Z,100939.97
2023-05-21T04:47:49.888Z,100939.97
2023-05-21T04:52:51.288Z,100943.06
2023-05-21T04:57:53.149Z,100954.56
2023-05-21T05:02:54.650Z,100944.91
2023-05-21T05:07:57.316Z,100948.97
2023-05-21T05:12:58.900Z,100949.75
2023-05-21T05:18:00.515Z,100948.97
2023-05-21T05:23:01.946Z,100949.38
2023-05-21T05:28:03.331Z,100952.16
2023-05-21T05:33:04.730Z,100942.06
2023-05-21T05:38:06.281Z,100940.00
2023-05-21T05:43:07.665Z,100954.06
2023-05-21T05:48:09.037Z,100941.94
2023-05-21T05:53:13.162Z,100951.72
2023-05-21T05:58:14.556Z,100947.38
2023-05-21T06:03:16.085Z,100944.78
2023-05-21T06:08:17.508Z,100942.13
2023-05-21T06:13:18.945Z,100942.38
2023-05-21T06:18:20.281Z,100945.59
2023-05-21T06:23:21.641Z,100944.28
2023-05-21T06:28:22.977Z,100944.25
2023-05-21T06:33:24.479Z,100934.69
2023-05-21T06:38:26.093Z,100927.63
2023-05-21T06:43:28.700Z,100933.50
2023-05-21T06:48:30.056Z,100929.47
2023-05-21T06:53:31.465Z,100936.28
2023-05-21T06:58:32.838Z,100935.72
2023-05-21T07:03:34.231Z,100930.91
2023-05-21T07:08:35.633Z,100934.97
2023-05-21T07:13:37.067Z,100929.69
2023-05-21T07:18:38.535Z,100928.25
2023-05-21T07:23:40.319Z,100927.81
2023-05-21T07:28:41.676Z,100938.22
2023-05-21T07:33:43.042Z,100937.88
2023-05-21T07:38:44.698Z,100933.59
2023-05-21T07:43:46.052Z,100929.53
2023-05-21T07:48:48.373Z,100923.47
2023-05-21T07:53:49.745Z,100927.34
2023-05-21T07:58:51.098Z,100922.38
2023-05-21T08:03:52.577Z,100918.25
2023-05-21T08:08:54.361Z,100923.50
2023-05-21T08:13:56.383Z,100912.06
2023-05-21T08:18:59.519Z,100912.41
2023-05-21T08:24:01.189Z,100901.78
2023-05-21T08:29:02.647Z,100900.13
2023-05-21T08:34:04.024Z,100900.59
2023-05-21T08:39:05.381Z,100901.13
2023-05-21T08:44:11.274Z,100899.13
2023-05-21T08:49:13.102Z,100898.50
2023-05-21T08:54:14.484Z,100875.75
2023-05-21T08:59:16.941Z,100889.50
2023-05-21T09:04:20.751Z,100882.50
2023-05-21T09:09:28.323Z,100886.91
2023-05-21T09:14:29.987Z,100891.00
2023-05-21T09:19:32.364Z,100875.34
2023-05-21T09:24:36.217Z,100872.69
2023-05-21T09:29:37.863Z,100865.09
2023-05-21T09:34:39.206Z,100873.19
2023-05-21T09:39:41.202Z,100859.59
2023-05-21T09:44:45.729Z,100858.63
2023-05-21T09:49:47.195Z,100849.63
2023-05-21T09:54:48.570Z,100853.06
2023-05-21T09:59:50.448Z,100837.06
2023-05-21T10:04:54.253Z,100838.16
2023-05-21T10:09:57.194Z,100837.84
2023-05-21T10:15:03.253Z,100836.97
2023-05-21T10:20:05.580Z,100825.09
2023-05-21T10:25:07.700Z,100821.28
2023-05-21T10:30:10.050Z,100807.94
2023-05-21T10:35:11.693Z,100787.38
2023-05-21T10:40:13.473Z,100786.28
2023-05-21T10:45:31.661Z,100784.81
2023-05-21T10:50:39.288Z,100779.13
2023-05-21T10:55:43.812Z,100775.09
2023-05-21T11:00:45.488Z,100769.94
2023-05-21T11:05:54.324Z,100769.03
2023-05-21T11:10:59.052Z,100765.88
2023-05-21T11:16:05.376Z,100759.84
2023-05-21T11:21:09.136Z,100750.78
2023-05-21T11:26:10.912Z,100745.25
2023-05-21T11:31:27.389Z,100737.63
2023-05-21T11:36:28.787Z,100726.66
2023-05-21T11:41:30.170Z,100731.78
2023-05-21T11:46:31.589Z,100737.03
2023-05-21T11:51:33.092Z,100725.22
2023-05-21T11:56:36.412Z,100725.75
2023-05-21T12:01:39.290Z,100721.50
2023-05-21T12:06:42.940Z,100723.78
2023-05-21T12:11:44.506Z,100722.56
2023-05-21T12:16:46.068Z,100727.06
2023-05-21T12:21:48.171Z,100727.72
2023-05-21T12:26:50.000Z,100718.16
2023-05-21T12:31:51.405Z,100726.06
2023-05-21T12:36:52.952Z,100723.03
2023-05-21T12:41:54.393Z,100718.84
2023-05-21T12:46:56.496Z,100710.13
2023-05-21T12:51:57.825Z,100713.25
2023-05-21T12:57:05.728Z,100709.66
2023-05-21T13:02:07.221Z,100703.59
2023-05-21T13:07:08.670Z,100700.16
2023-05-21T13:12:11.104Z,100697.91
2023-05-21T13:17:12.449Z,100698.97
2023-05-21T13:22:13.793Z,100690.31
2023-05-21T13:27:15.134Z,100684.09
2023-05-21T13:32:16.499Z,100687.38
2023-05-21T13:37:17.901Z,100674.84
2023-05-21T13:42:19.831Z,100678.09
2023-05-21T13:47:21.244Z,100670.19
2023-05-21T13:52:22.675Z,100680.03
2023-05-21T13:57:26.658Z,100667.81
2023-05-21T14:02:28.111Z,100671.25
2023-05-21T14:07:29.498Z,100660.16
2023-05-21T14:12:31.118Z,100668.13
2023-05-21T14:17:32.532Z,100667.63
2023-05-21T14:22:33.954Z,100655.69
2023-05-21T14:27:37.811Z,100656.59
2023-05-21T14:32:39.401Z,100651.78
2023-05-21T14:37:40.952Z,100662.97
2023-05-21T14:42:42.314Z,100661.78
2023-05-21T14:47:43.675Z,100658.50
2023-05-21T14:52:45.194Z,100657.66
2023-05-21T14:57:46.600Z,100654.56
2023-05-21T15:02:48.155Z,100650.47
2023-05-21T15:07:49.648Z,100650.13
2023-05-21T15:12:51.226Z,100651.78
2023-05-21T15:17:52.706Z,100639.38
2023-05-21T15:23:05.039Z,100636.84
2023-05-21T15:28:15.500Z,100631.38
2023-05-21T15:33:17.082Z,100640.69
2023-05-21T15:38:18.437Z,100632.09
2023-05-21T15:43:19.906Z,100623.78
2023-05-21T15:48:22.867Z,100621.47
2023-05-21T15:53:24.299Z,100621.88
2023-05-21T15:58:25.808Z,100613.84
2023-05-21T16:03:27.282Z,100614.53
2023-05-21T16:08:28.713Z,100616.97
2023-05-21T16:13:30.081Z,100608.09
2023-05-21T16:18:31.424Z,100614.66
2023-05-21T16:23:34.171Z,100622.03
2023-05-21T16:28:37.512Z,100607.56
2023-05-21T16:33:39.207Z,100608.75
2023-05-21T16:38:40.600Z,100614.72
2023-05-21T16:43:42.022Z,100611.56
2023-05-21T16:48:43.965Z,100612.00
2023-05-21T16:53:45.545Z,100615.13
2023-05-21T16:58:46.907Z,100612.91
2023-05-21T17:03:48.344Z,100619.97
2023-05-21T17:08:49.776Z,100632.75
2023-05-21T17:13:51.206Z,100631.53
2023-05-21T17:18:52.588Z,100642.91
2023-05-21T17:23:54.006Z,100637.53
2023-05-21T17:28:56.172Z,100630.91
2023-05-21T17:33:57.615Z,100640.28
2023-05-21T17:38:59.222Z,100631.94
2023-05-21T17:44:00.623Z,100642.91
2023-05-21T17:49:02.108Z,100657.22
2023-05-21T17:54:04.174Z,100656.78
2023-05-21T17:59:06.629Z,100660.91
2023-05-21T18:04:12.423Z,100656.47
2023-05-21T18:09:15.385Z,100668.56
2023-05-21T18:14:16.792Z,100667.75
2023-05-21T18:19:18.209Z,100672.38
2023-05-21T18:24:19.613Z,100672.22
2023-05-21T18:29:21.078Z,100666.22
2023-05-21T18:34:22.652Z,100672.34
2023-05-21T18:39:24.847Z,100677.16
2023-05-21T18:44:27.243Z,100674.25
2023-05-21T18:49:33.764Z,100673.16
2023-05-21T18:54:35.129Z,100677.97
2023-05-21T18:59:38.591Z,100676.41
2023-05-21T19:04:39.972Z,100680.88
2023-05-21T19:09:41.390Z,100686.22
2023-05-21T19:14:45.572Z,100679.84
2023-05-21T19:19:46.991Z,100680.59
2023-05-21T19:24:48.480Z,100680.81
2023-05-21T19:29:49.859Z,100682.88
2023-05-21T19:34:52.178Z,100693.72
2023-05-21T19:39:53.528Z,100695.03
2023-05-21T19:44:54.901Z,100701.59
2023-05-21T19:49:56.420Z,100697.31
2023-05-21T19:55:04.468Z,100696.97
2023-05-21T20:00:06.091Z,100701.91
2023-05-21T20:05:07.937Z,100703.63
2023-05-21T20:10:09.403Z,100710.44
2023-05-21T20:15:13.117Z,100715.28
2023-05-21T20:20:14.541Z,100710.81
2023-05-21T20:25:15.900Z,100712.22
2023-05-21T20:30:17.289Z,100712.13
2023-05-21T20:35:18.717Z,100714.47
2023-05-21T20:40:20.052Z,100714.91
2023-05-21T20:45:21.993Z,100716.31
2023-05-21T20:50:26.059Z,100718.50
2023-05-21T20:55:27.523Z,100715.28
2023-05-21T21:00:28.987Z,100712.25
2023-05-21T21:05:30.434Z,100715.31
2023-05-21T21:10:35.157Z,100720.63
2023-05-21T21:15:36.678Z,100722.06
2023-05-21T21:20:38.655Z,100719.59
2023-05-21T21:25:40.147Z,100714.13
2023-05-21T21:30:41.604Z,100718.63
2023-05-21T21:35:42.998Z,100723.19
2023-05-21T21:40:44.355Z,100710.31
2023-05-21T21:45:45.914Z,100716.47
2023-05-21T21:50:47.258Z,100719.06
2023-05-21T21:55:48.657Z,100720.47
2023-05-21T22:00:50.085Z,100713.91
2023-05-21T22:05:51.738Z,100727.25
2023-05-21T22:10:53.587Z,100724.66
2023-05-21T22:15:55.073Z,100720.22
2023-05-21T22:20:56.432Z,100724.16
2023-05-21T22:25:57.792Z,100722.69
2023-05-21T22:30:59.218Z,100716.66
2023-05-21T22:36:00.640Z,100718.75
2023-05-21T22:41:02.130Z,100710.72
2023-05-21T22:46:03.604Z,100716.91
2023-05-21T22:51:05.423Z,100718.78
2023-05-21T22:56:06.974Z,100717.78
2023-05-21T23:01:08.359Z,100726.00
2023-05-21T23:06:09.761Z,100730.59
2023-05-21T23:11:11.135Z,100726.47
2023-05-21T23:16:12.629Z,100730.00
2023-05-21T23:21:14.089Z,100727.47
2023-05-21T23:26:15.458Z,100734.22
2023-05-21T23:31:17.787Z,100731.69
2023-05-21T23:36:19.257Z,100733.63
2023-05-21T23:41:21.026Z,100740.25
2023-05-21T23:46:22.444Z,100735.88
2023-05-21T23:51:24.002Z,100735.19
2023-05-21T23:56:25.358Z,100734.94
